createdAt,value
2022-08-02T00:00:40.533Z,41.09
2022-08-02T00:03:08.276Z,41.21
2022-08-02T00:05:36.104Z,41.12
2022-08-02T00:08:04.230Z,41.24
2022-08-02T00:10:32.314Z,41.35
2022-08-02T00:13:00.385Z,41.65
2022-08-02T00:15:28.191Z,41.70
2022-08-02T00:17:55.898Z,41.68
2022-08-02T00:20:23.915Z,41.70
2022-08-02T00:22:52.194Z,41.67
2022-08-02T00:25:20.363Z,41.60
2022-08-02T00:27:48.153Z,41.80
2022-08-02T00:30:16.102Z,41.83
2022-08-02T00:32:44.037Z,41.95
2022-08-02T00:35:11.859Z,42.05
2022-08-02T00:37:44.725Z,42.04
2022-08-02T00:40:12.753Z,42.24
2022-08-02T00:42:41.044Z,42.07
2022-08-02T00:45:09.640Z,42.24
2022-08-02T00:47:37.378Z,42.28
2022-08-02T00:50:05.846Z,42.20
2022-08-02T00:52:33.665Z,42.51
2022-08-02T00:55:01.641Z,42.60
2022-08-02T00:57:29.455Z,42.67
2022-08-02T00:59:57.265Z,42.77
2022-08-02T01:02:25.229Z,42.83
2022-08-02T01:04:53.833Z,42.96
2022-08-02T01:07:21.807Z,43.00
2022-08-02T01:09:50.197Z,43.12
2022-08-02T01:12:18.332Z,43.34
2022-08-02T01:14:52.262Z,43.18
2022-08-02T01:17:39.467Z,43.18
2022-08-02T01:20:53.800Z,43.13
2022-08-02T01:23:46.035Z,43.09
2022-08-02T01:26:57.893Z,43.14
2022-08-02T01:29:39.433Z,43.40
2022-08-02T01:32:19.206Z,43.47
2022-08-02T01:35:00.107Z,43.15
2022-08-02T01:37:49.927Z,43.34
2022-08-02T01:40:27.283Z,43.43
2022-08-02T01:42:57.798Z,43.58
2022-08-02T01:45:30.632Z,43.59
2022-08-02T01:48:01.174Z,43.64
2022-08-02T01:50:33.591Z,43.43
2022-08-02T01:53:07.545Z,43.30
2022-08-02T01:55:57.118Z,43.39
2022-08-02T01:58:37.533Z,43.57
2022-08-02T02:01:07.898Z,43.55
2022-08-02T02:03:41.653Z,43.72
2022-08-02T02:06:11.570Z,44.00
2022-08-02T02:08:43.591Z,43.96
2022-08-02T02:12:06.468Z,43.96
2022-08-02T02:14:02.682Z,43.95
2022-08-02T02:16:32.264Z,43.88
2022-08-02T02:19:03.649Z,44.14
2022-08-02T02:21:32.251Z,44.25
2022-08-02T02:24:03.773Z,44.24
2022-08-02T02:26:35.915Z,44.13
2022-08-02T02:29:08.890Z,44.22
2022-08-02T02:31:40.327Z,44.36
2022-08-02T02:34:26.402Z,44.15
2022-08-02T02:36:56.577Z,44.30
2022-08-02T02:39:28.402Z,44.26
2022-08-02T02:42:01.471Z,43.95
2022-08-02T02:44:30.984Z,44.20
2022-08-02T02:47:00.350Z,44.04
2022-08-02T02:49:31.825Z,44.33
2022-08-02T02:52:00.098Z,44.23
2022-08-02T02:54:34.339Z,44.23
2022-08-02T02:57:06.287Z,44.39
2022-08-02T02:59:45.358Z,44.67
2022-08-02T03:02:19.640Z,44.69
2022-08-02T03:04:55.856Z,44.60
2022-08-02T03:07:26.922Z,44.64
2022-08-02T03:09:55.277Z,44.74
2022-08-02T03:12:30.974Z,44.90
2022-08-02T03:15:04.544Z,44.77
2022-08-02T03:17:44.935Z,44.75
2022-08-02T03:20:16.268Z,44.70
2022-08-02T03:22:45.408Z,44.66
2022-08-02T03:25:15.130Z,45.01
2022-08-02T03:27:42.991Z,45.13
2022-08-02T03:30:13.170Z,45.00
2022-08-02T03:32:44.459Z,45.18
2022-08-02T03:35:22.695Z,45.12
2022-08-02T03:37:54.200Z,45.18
2022-08-02T03:40:23.091Z,45.23
2022-08-02T03:42:51.453Z,45.30
2022-08-02T03:45:20.674Z,45.27
2022-08-02T03:47:49.920Z,45.56
2022-08-02T03:50:19.684Z,45.57
2022-08-02T03:52:48.439Z,45.75
2022-08-02T03:55:16.319Z,45.64
2022-08-02T03:57:44.413Z,46.11
2022-08-02T04:00:19.643Z,45.74
2022-08-02T04:02:48.428Z,45.91
2022-08-02T04:05:18.874Z,46.08
2022-08-02T04:08:33.043Z,46.17
2022-08-02T04:10:56.386Z,45.98
2022-08-02T04:13:35.714Z,46.31
2022-08-02T04:16:42.586Z,46.02
2022-08-02T04:19:16.815Z,46.19
2022-08-02T04:21:51.675Z,46.24
2022-08-02T04:24:26.685Z,46.18
2022-08-02T04:26:57.816Z,46.28
2022-08-02T04:29:33.244Z,46.38
2022-08-02T04:32:02.701Z,46.59
2022-08-02T04:34:31.356Z,46.32
2022-08-02T04:37:00.469Z,46.47
2022-08-02T04:39:28.485Z,46.35
2022-08-02T04:41:57.932Z,46.63
2022-08-02T04:44:26.082Z,46.56
2022-08-02T04:46:55.400Z,46.42
2022-08-02T04:49:23.645Z,46.59
2022-08-02T04:51:51.644Z,46.51
2022-08-02T04:54:19.621Z,46.39
2022-08-02T04:56:47.409Z,46.77
2022-08-02T04:59:15.209Z,46.68
2022-08-02T05:01:43.129Z,46.48
2022-08-02T05:04:11.223Z,46.58
2022-08-02T05:06:39.009Z,46.74
2022-08-02T05:09:07.047Z,46.68
2022-08-02T05:11:36.699Z,46.89
2022-08-02T05:14:05.996Z,46.92
2022-08-02T05:16:33.953Z,46.99
2022-08-02T05:19:02.319Z,47.04
2022-08-02T05:21:31.733Z,46.83
2022-08-02T05:23:59.955Z,46.96
2022-08-02T05:26:27.829Z,47.16
2022-08-02T05:28:55.772Z,46.94
2022-08-02T05:31:23.537Z,46.99
2022-08-02T05:33:51.337Z,46.90
2022-08-02T05:36:19.181Z,47.00
2022-08-02T05:38:51.045Z,46.72
2022-08-02T05:41:20.362Z,46.76
2022-08-02T05:43:48.394Z,46.39
2022-08-02T05:46:16.388Z,46.46
2022-08-02T05:48:45.565Z,46.49
2022-08-02T05:51:24.214Z,46.30
2022-08-02T05:54:12.232Z,46.42
2022-08-02T05:57:01.850Z,46.26
2022-08-02T05:59:32.273Z,46.48
2022-08-02T06:02:08.667Z,46.27
2022-08-02T06:05:11.632Z,46.29
2022-08-02T06:07:46.593Z,46.31
2022-08-02T06:10:20.255Z,46.21
2022-08-02T06:13:09.591Z,46.12
2022-08-02T06:15:52.510Z,46.50
2022-08-02T06:18:28.381Z,46.27
2022-08-02T06:21:03.773Z,46.31
2022-08-02T06:23:58.895Z,46.34
2022-08-02T06:26:30.356Z,45.97
2022-08-02T06:28:58.899Z,46.18
2022-08-02T06:31:26.612Z,46.18
2022-08-02T06:33:55.225Z,46.23
2022-08-02T06:36:47.469Z,45.96
2022-08-02T06:39:39.198Z,45.67
2022-08-02T06:42:26.808Z,45.43
2022-08-02T06:44:58.124Z,45.23
2022-08-02T06:47:26.869Z,45.20
2022-08-02T06:49:56.741Z,44.82
2022-08-02T06:52:31.212Z,44.89
2022-08-02T06:55:05.281Z,44.50
2022-08-02T06:57:33.944Z,44.42
2022-08-02T07:00:05.707Z,44.14
2022-08-02T07:02:39.830Z,43.73
2022-08-02T07:05:09.224Z,43.72
2022-08-02T07:07:37.112Z,43.61
2022-08-02T07:10:05.525Z,43.42
2022-08-02T07:12:34.991Z,43.34
2022-08-02T07:15:06.318Z,43.21
2022-08-02T07:17:35.549Z,42.77
2022-08-02T07:20:04.631Z,42.83
2022-08-02T07:22:32.590Z,42.87
2022-08-02T07:25:01.047Z,42.91
2022-08-02T07:27:29.516Z,42.52
2022-08-02T07:29:57.840Z,42.36
2022-08-02T07:32:29.983Z,42.62
2022-08-02T07:34:59.421Z,42.31
2022-08-02T07:37:53.655Z,42.06
2022-08-02T07:40:21.054Z,41.80
2022-08-02T07:42:57.847Z,41.47
2022-08-02T07:45:32.765Z,41.66
2022-08-02T07:48:04.174Z,41.40
2022-08-02T07:50:31.966Z,41.12
2022-08-02T07:53:00.016Z,41.27
2022-08-02T07:55:31.209Z,41.03
2022-08-02T07:58:12.422Z,41.39
2022-08-02T08:00:43.830Z,41.37
2022-08-02T08:03:12.329Z,41.18
2022-08-02T08:05:40.874Z,41.14
2022-08-02T08:08:13.568Z,40.73
2022-08-02T08:10:45.024Z,40.49
2022-08-02T08:13:13.235Z,40.35
2022-08-02T08:15:41.408Z,39.89
2022-08-02T08:18:22.721Z,39.96
2022-08-02T08:20:51.714Z,40.83
2022-08-02T08:23:19.823Z,39.72
2022-08-02T08:25:48.332Z,39.36
2022-08-02T08:28:16.923Z,39.47
2022-08-02T08:30:45.165Z,39.05
2022-08-02T08:33:13.532Z,39.17
2022-08-02T08:35:43.276Z,39.00
2022-08-02T08:38:11.275Z,38.93
2022-08-02T08:40:39.279Z,38.41
2022-08-02T08:43:07.117Z,38.60
2022-08-02T08:45:35.314Z,38.48
2022-08-02T08:48:16.121Z,38.21
2022-08-02T08:51:10.591Z,37.92
2022-08-02T08:53:44.276Z,37.84
2022-08-02T08:56:16.319Z,37.56
2022-08-02T08:58:47.618Z,37.42
2022-08-02T09:01:16.897Z,37.55
2022-08-02T09:03:46.291Z,37.25
2022-08-02T09:06:14.334Z,37.37
2022-08-02T09:08:42.074Z,36.99
2022-08-02T09:11:20.312Z,36.69
2022-08-02T09:13:58.639Z,36.73
2022-08-02T09:16:32.584Z,36.99
2022-08-02T09:19:17.107Z,36.88
2022-08-02T09:21:45.149Z,36.34
2022-08-02T09:24:22.831Z,36.16
2022-08-02T09:26:51.844Z,36.38
2022-08-02T09:29:23.923Z,35.94
2022-08-02T09:31:53.139Z,36.01
2022-08-02T09:34:22.332Z,36.31
2022-08-02T09:36:54.405Z,35.86
2022-08-02T09:39:23.790Z,35.86
2022-08-02T09:41:51.663Z,35.80
2022-08-02T09:44:19.369Z,35.94
2022-08-02T09:46:48.003Z,35.59
2022-08-02T09:49:18.681Z,35.69
2022-08-02T09:51:49.022Z,35.56
2022-08-02T09:54:19.905Z,35.46
2022-08-02T09:56:57.233Z,35.48
2022-08-02T09:59:26.571Z,35.47
2022-08-02T10:02:01.190Z,35.32
2022-08-02T10:04:34.059Z,35.08
2022-08-02T10:07:04.898Z,35.21
2022-08-02T10:09:33.682Z,34.95
2022-08-02T10:12:01.689Z,34.60
2022-08-02T10:14:33.824Z,34.68
2022-08-02T10:17:02.759Z,34.43
2022-08-02T10:20:00.018Z,34.41
2022-08-02T10:22:20.055Z,34.34
2022-08-02T10:24:49.186Z,34.35
2022-08-02T10:27:20.651Z,33.87
2022-08-02T10:29:54.943Z,33.60
2022-08-02T10:32:46.352Z,33.75
2022-08-02T10:35:25.712Z,33.41
2022-08-02T10:38:01.168Z,33.37
2022-08-02T10:40:55.503Z,33.13
2022-08-02T10:43:32.785Z,32.79
2022-08-02T10:46:34.334Z,32.91
2022-08-02T10:52:02.971Z,32.70
2022-08-02T10:54:44.365Z,32.38
2022-08-02T10:57:33.852Z,33.40
2022-08-02T11:00:25.284Z,32.96
2022-08-02T11:02:53.878Z,32.98
2022-08-02T11:05:42.563Z,32.37
2022-08-02T11:08:22.650Z,32.36
2022-08-02T11:10:50.625Z,32.78
2022-08-02T11:13:22.194Z,32.37
2022-08-02T11:16:10.790Z,32.51
2022-08-02T11:18:51.428Z,32.66
2022-08-02T11:21:23.479Z,32.02
2022-08-02T11:23:52.758Z,32.02
2022-08-02T11:26:32.302Z,31.68
2022-08-02T11:29:05.254Z,31.50
2022-08-02T11:31:44.532Z,31.20
2022-08-02T11:34:36.421Z,31.19
2022-08-02T11:37:01.704Z,31.20
2022-08-02T11:39:29.713Z,30.96
2022-08-02T11:42:00.027Z,30.63
2022-08-02T11:44:30.686Z,30.52
2022-08-02T11:47:02.659Z,30.45
2022-08-02T11:49:31.437Z,30.84
2022-08-02T11:52:05.440Z,30.69
2022-08-02T11:54:40.193Z,30.65
2022-08-02T11:57:22.376Z,30.12
2022-08-02T11:59:53.335Z,30.25
2022-08-02T12:02:28.902Z,30.17
2022-08-02T12:05:02.070Z,29.90
2022-08-02T12:07:37.060Z,29.65
2022-08-02T12:10:20.135Z,29.55
2022-08-02T12:12:58.065Z,29.45
2022-08-02T12:15:46.527Z,29.42
2022-08-02T12:18:40.609Z,29.36
2022-08-02T12:21:24.902Z,29.60
2022-08-02T12:24:00.792Z,29.37
2022-08-02T12:26:46.714Z,29.23
2022-08-02T12:29:14.852Z,29.39
2022-08-02T12:32:03.983Z,29.57
2022-08-02T12:34:33.818Z,29.31
2022-08-02T12:37:04.661Z,29.23
2022-08-02T12:39:45.671Z,29.38
2022-08-02T12:42:16.306Z,29.58
2022-08-02T12:44:59.433Z,29.72
2022-08-02T12:47:31.404Z,29.47
2022-08-02T12:50:22.276Z,29.90
2022-08-02T12:52:51.147Z,29.61
2022-08-02T12:55:59.494Z,29.20
2022-08-02T12:58:14.564Z,29.37
2022-08-02T13:00:55.199Z,29.59
2022-08-02T13:04:09.555Z,29.01
2022-08-02T13:06:40.690Z,29.33
2022-08-02T13:09:00.693Z,28.72
2022-08-02T13:11:28.935Z,28.72
2022-08-02T13:13:56.866Z,28.56
2022-08-02T13:16:30.544Z,28.42
2022-08-02T13:19:00.035Z,28.59
2022-08-02T13:21:40.972Z,27.93
2022-08-02T13:24:33.318Z,27.69
2022-08-02T13:27:04.466Z,28.11
2022-08-02T13:29:37.686Z,27.89
2022-08-02T13:32:06.019Z,27.42
2022-08-02T13:34:33.954Z,27.56
2022-08-02T13:37:03.710Z,27.32
2022-08-02T13:39:31.753Z,27.04
2022-08-02T13:41:59.576Z,27.02
2022-08-02T13:44:27.522Z,27.54
2022-08-02T13:46:55.730Z,27.31
2022-08-02T13:49:50.190Z,27.14
2022-08-02T13:52:12.775Z,26.91
2022-08-02T13:54:41.064Z,26.63
2022-08-02T13:57:09.014Z,26.34
2022-08-02T13:59:56.279Z,26.42
2022-08-02T14:02:25.402Z,26.67
2022-08-02T14:04:53.306Z,26.80
2022-08-02T14:10:03.174Z,26.12
2022-08-02T14:12:30.889Z,26.41
2022-08-02T14:14:58.798Z,26.22
2022-08-02T14:17:26.712Z,25.98
2022-08-02T14:19:54.533Z,25.90
2022-08-02T14:22:22.898Z,25.64
2022-08-02T14:24:53.710Z,25.49
2022-08-02T14:27:21.702Z,25.78
2022-08-02T14:29:51.338Z,24.92
2022-08-02T14:32:19.161Z,25.18
2022-08-02T14:34:46.929Z,25.59
2022-08-02T14:37:16.237Z,25.34
2022-08-02T14:40:00.830Z,24.99
2022-08-02T14:42:30.098Z,25.10
2022-08-02T14:44:57.925Z,25.35
2022-08-02T14:47:25.711Z,25.35
2022-08-02T14:49:53.502Z,24.92
2022-08-02T14:52:21.378Z,24.72
2022-08-02T14:54:49.379Z,24.61
2022-08-02T14:57:17.353Z,24.65
2022-08-02T14:59:45.566Z,24.92
2022-08-02T15:02:14.293Z,24.83
2022-08-02T15:04:43.662Z,25.01
2022-08-02T15:07:13.748Z,25.08
2022-08-02T15:09:41.801Z,24.75
2022-08-02T15:12:11.573Z,24.57
2022-08-02T15:14:40.670Z,24.32
2022-08-02T15:17:09.294Z,24.49
2022-08-02T15:19:58.080Z,24.68
2022-08-02T15:22:25.636Z,24.70
2022-08-02T15:24:54.013Z,24.47
2022-08-02T15:27:21.824Z,24.61
2022-08-02T15:29:51.116Z,24.12
2022-08-02T15:32:19.576Z,23.88
2022-08-02T15:34:47.806Z,23.92
2022-08-02T15:37:15.590Z,23.68
2022-08-02T15:39:44.105Z,23.80
2022-08-02T15:42:12.458Z,23.57
2022-08-02T15:44:40.694Z,23.49
2022-08-02T15:47:08.997Z,23.46
2022-08-02T15:49:41.251Z,23.45
2022-08-02T15:52:10.295Z,23.32
2022-08-02T15:54:38.413Z,23.60
2022-08-02T15:57:06.987Z,23.45
2022-08-02T15:59:34.849Z,23.19
2022-08-02T16:02:04.036Z,23.28
2022-08-02T16:04:32.736Z,23.44
2022-08-02T16:07:01.618Z,23.59
2022-08-02T16:09:29.659Z,23.40
2022-08-02T16:11:57.859Z,23.16
2022-08-02T16:14:25.764Z,23.04
2022-08-02T16:16:53.874Z,22.95
2022-08-02T16:19:47.083Z,22.99
2022-08-02T16:22:12.495Z,23.10
2022-08-02T16:24:40.664Z,23.46
2022-08-02T16:27:08.641Z,23.52
2022-08-02T16:29:37.428Z,23.26
2022-08-02T16:32:06.147Z,23.33
2022-08-02T16:34:50.750Z,23.54
2022-08-02T16:37:22.587Z,23.56
2022-08-02T16:39:50.298Z,23.15
2022-08-02T16:42:25.038Z,22.99
2022-08-02T16:44:54.910Z,23.28
2022-08-02T16:47:37.017Z,23.05
2022-08-02T16:50:11.304Z,23.17
2022-08-02T16:55:51.925Z,23.21
2022-08-02T16:58:21.318Z,23.05
2022-08-02T17:00:49.273Z,23.23
2022-08-02T17:03:17.107Z,23.25
2022-08-02T17:05:56.362Z,23.03
2022-08-02T17:08:32.130Z,23.06
2022-08-02T17:11:03.110Z,23.65
2022-08-02T17:13:34.485Z,23.90
2022-08-02T17:16:26.312Z,24.71
2022-08-02T17:18:55.264Z,25.32
2022-08-02T17:21:23.199Z,25.67
2022-08-02T17:24:04.979Z,25.05
2022-08-02T17:26:37.843Z,25.00
2022-08-02T17:29:15.887Z,25.90
2022-08-02T17:32:05.033Z,26.37
2022-08-02T17:34:36.987Z,26.57
2022-08-02T17:37:06.220Z,26.19
2022-08-02T17:39:43.224Z,26.46
2022-08-02T17:45:24.856Z,27.05
2022-08-02T17:48:03.991Z,26.77
2022-08-02T17:50:34.703Z,27.03
2022-08-02T17:53:02.883Z,27.05
2022-08-02T17:55:31.031Z,27.53
2022-08-02T17:58:00.616Z,27.53
2022-08-02T18:00:34.611Z,27.63
2022-08-02T18:03:05.424Z,27.73
2022-08-02T18:05:40.068Z,27.20
2022-08-02T18:08:23.600Z,27.70
2022-08-02T18:10:54.204Z,28.11
2022-08-02T18:13:23.334Z,28.17
2022-08-02T18:15:57.189Z,28.13
2022-08-02T18:18:29.391Z,28.50
2022-08-02T18:21:16.322Z,29.08
2022-08-02T18:23:49.362Z,29.13
2022-08-02T18:26:20.809Z,29.04
2022-08-02T18:28:49.100Z,29.27
2022-08-02T18:31:22.530Z,29.47
2022-08-02T18:33:59.632Z,29.67
2022-08-02T18:36:30.429Z,29.74
2022-08-02T18:39:08.361Z,29.72
2022-08-02T18:41:36.530Z,29.77
2022-08-02T18:44:06.361Z,29.61
2022-08-02T18:46:34.274Z,29.83
2022-08-02T18:49:13.335Z,29.63
2022-08-02T18:51:43.809Z,29.71
2022-08-02T18:54:11.844Z,29.78
2022-08-02T18:56:40.133Z,30.13
2022-08-02T18:59:07.992Z,30.03
2022-08-02T19:01:46.945Z,30.08
2022-08-02T19:04:27.462Z,30.30
2022-08-02T19:07:07.190Z,30.40
2022-08-02T19:09:39.830Z,30.58
2022-08-02T19:12:11.384Z,30.43
2022-08-02T19:14:40.422Z,30.83
2022-08-02T19:17:53.903Z,30.82
2022-08-02T19:19:56.800Z,30.53
2022-08-02T19:22:25.366Z,30.91
2022-08-02T19:25:01.176Z,30.78
2022-08-02T19:27:32.942Z,31.12
2022-08-02T19:30:07.477Z,31.29
2022-08-02T19:32:42.116Z,31.75
2022-08-02T19:35:29.576Z,31.88
2022-08-02T19:38:10.223Z,32.17
2022-08-02T19:40:41.791Z,32.61
2022-08-02T19:44:26.075Z,32.68
2022-08-02T19:45:59.122Z,32.89
2022-08-02T19:48:28.220Z,32.79
2022-08-02T19:51:00.538Z,33.43
2022-08-02T19:53:47.888Z,33.10
2022-08-02T19:56:24.859Z,33.55
2022-08-02T19:58:56.975Z,33.61
2022-08-02T20:04:14.181Z,33.90
2022-08-02T20:06:47.770Z,34.08
2022-08-02T20:09:21.545Z,34.34
2022-08-02T20:11:54.528Z,34.00
2022-08-02T20:14:27.630Z,33.79
2022-08-02T20:16:57.224Z,34.25
2022-08-02T20:19:25.188Z,34.90
2022-08-02T20:21:59.447Z,34.64
2022-08-02T20:24:29.528Z,35.04
2022-08-02T20:26:59.284Z,35.13
2022-08-02T20:29:43.170Z,34.58
2022-08-02T20:32:22.500Z,34.86
2022-08-02T20:34:51.161Z,34.63
2022-08-02T20:37:59.722Z,35.00
2022-08-02T20:40:10.162Z,34.90
2022-08-02T20:42:47.578Z,34.55
2022-08-02T20:45:16.863Z,34.81
2022-08-02T20:47:51.017Z,35.04
2022-08-02T20:50:38.497Z,34.89
2022-08-02T20:53:08.858Z,34.71
2022-08-02T20:55:54.023Z,35.00
2022-08-02T20:58:26.832Z,34.92
2022-08-02T21:00:59.261Z,35.32
2022-08-02T21:03:32.303Z,35.61
2022-08-02T21:06:15.111Z,35.69
2022-08-02T21:08:45.971Z,35.49
2022-08-02T21:11:14.552Z,35.91
2022-08-02T21:13:46.388Z,36.06
2022-08-02T21:16:18.450Z,35.53
2022-08-02T21:18:51.249Z,35.83
2022-08-02T21:21:18.966Z,35.71
2022-08-02T21:23:48.943Z,35.84
2022-08-02T21:26:28.554Z,36.04
2022-08-02T21:29:03.620Z,36.19
2022-08-02T21:31:35.857Z,36.01
2022-08-02T21:34:21.946Z,36.46
2022-08-02T21:36:50.838Z,36.39
2022-08-02T21:39:19.079Z,36.92
2022-08-02T21:41:49.251Z,36.73
2022-08-02T21:44:19.535Z,36.60
2022-08-02T21:46:50.385Z,36.91
2022-08-02T21:49:20.041Z,36.77
2022-08-02T21:51:50.149Z,37.06
2022-08-02T21:54:21.245Z,37.18
2022-08-02T21:56:52.914Z,37.35
2022-08-02T21:59:25.205Z,37.44
2022-08-02T22:01:56.746Z,37.84
2022-08-02T22:04:28.623Z,37.86
2022-08-02T22:06:57.766Z,37.99
2022-08-02T22:09:44.485Z,38.12
2022-08-02T22:12:17.570Z,38.18
2022-08-02T22:14:54.225Z,38.19
2022-08-02T22:17:30.438Z,38.56
2022-08-02T22:20:19.606Z,38.42
2022-08-02T22:22:52.538Z,38.69
2022-08-02T22:25:27.212Z,38.72
2022-08-02T22:28:37.714Z,38.89
2022-08-02T22:31:04.474Z,39.08
2022-08-02T22:34:00.317Z,39.17
2022-08-02T22:36:38.665Z,39.17
2022-08-02T22:39:19.378Z,39.28
2022-08-02T22:42:05.929Z,39.32
2022-08-02T22:44:35.603Z,39.46
2022-08-02T22:47:07.522Z,39.66
2022-08-02T22:49:51.669Z,39.84
2022-08-02T22:52:24.201Z,40.05
2022-08-02T22:54:52.326Z,40.12
2022-08-02T22:57:30.610Z,40.09
2022-08-02T22:58:39.899Z,26.50
2022-08-02T22:58:54.159Z,33.93
2022-08-02T23:00:00.653Z,40.11
2022-08-02T23:02:28.458Z,40.19
2022-08-02T23:04:58.241Z,40.35
2022-08-02T23:07:26.394Z,40.31
2022-08-02T23:09:54.744Z,40.33
2022-08-02T23:12:22.834Z,40.35
2022-08-02T23:14:51.644Z,40.47
2022-08-02T23:17:38.881Z,40.71
2022-08-02T23:20:09.685Z,40.53
2022-08-02T23:22:38.165Z,40.99
2022-08-02T23:25:07.659Z,41.03
2022-08-02T23:27:36.049Z,41.24
2022-08-02T23:30:05.297Z,41.28
2022-08-02T23:32:33.073Z,41.36
2022-08-02T23:35:01.077Z,41.65
2022-08-02T23:37:28.932Z,41.69
2022-08-02T23:40:38.729Z,41.83
2022-08-02T23:43:14.356Z,41.99
2022-08-02T23:45:45.240Z,42.17
2022-08-02T23:48:13.259Z,42.30
2022-08-02T23:50:41.116Z,42.18
2022-08-02T23:53:09.037Z,42.47
2022-08-02T23:55:36.916Z,42.69
2022-08-02T23:58:04.836Z,42.73
